createdAt,value
2022-07-29T00:02:26.559Z,4.53
2022-07-29T00:04:53.315Z,4.38
2022-07-29T00:07:20.023Z,4.70
2022-07-29T00:09:51.541Z,4.57
2022-07-29T00:12:25.541Z,4.75
2022-07-29T00:14:57.159Z,4.72
2022-07-29T00:17:24.915Z,4.93
2022-07-29T00:19:52.052Z,4.55
2022-07-29T00:22:19.143Z,5.35
2022-07-29T00:24:45.796Z,5.03
2022-07-29T00:27:12.424Z,4.88
2022-07-29T00:29:39.107Z,4.95
2022-07-29T00:32:06.023Z,5.05
2022-07-29T00:35:05.112Z,4.80
2022-07-29T00:37:31.752Z,4.80
2022-07-29T00:39:58.353Z,4.20
2022-07-29T00:42:25.000Z,4.53
2022-07-29T00:44:51.626Z,4.55
2022-07-29T00:47:18.261Z,4.50
2022-07-29T00:49:45.134Z,5.10
2022-07-29T00:52:12.828Z,5.75
2022-07-29T00:54:44.845Z,5.00
2022-07-29T00:57:12.751Z,4.50
2022-07-29T00:59:39.494Z,4.60
2022-07-29T01:02:06.319Z,4.85
2022-07-29T01:04:33.232Z,4.75
2022-07-29T01:07:05.105Z,4.63
2022-07-29T01:09:46.222Z,5.10
2022-07-29T01:12:24.044Z,5.20
2022-07-29T01:14:52.173Z,5.90
2022-07-29T01:17:25.097Z,5.43
2022-07-29T01:19:58.250Z,4.93
2022-07-29T01:22:46.289Z,5.13
2022-07-29T01:25:42.144Z,4.88
2022-07-29T01:28:29.669Z,5.20
2022-07-29T01:30:57.659Z,5.10
2022-07-29T01:33:46.551Z,4.90
2022-07-29T01:36:17.404Z,4.85
2022-07-29T01:38:50.905Z,5.50
2022-07-29T01:41:20.654Z,5.15
2022-07-29T01:44:00.328Z,5.32
2022-07-29T01:46:38.304Z,4.63
2022-07-29T01:49:34.491Z,4.72
2022-07-29T01:52:06.555Z,5.18
2022-07-29T01:54:52.075Z,4.68
2022-07-29T01:57:22.060Z,4.82
2022-07-29T01:59:50.896Z,5.10
2022-07-29T02:02:19.947Z,5.32
2022-07-29T02:04:49.792Z,4.47
2022-07-29T02:07:20.439Z,5.25
2022-07-29T02:09:50.453Z,5.18
2022-07-29T02:12:19.276Z,4.90
2022-07-29T02:14:51.509Z,5.20
2022-07-29T02:17:27.414Z,5.30
2022-07-29T02:19:58.265Z,5.05
2022-07-29T02:22:27.038Z,5.40
2022-07-29T02:24:54.566Z,5.53
2022-07-29T02:27:22.676Z,5.32
2022-07-29T02:29:51.360Z,4.97
2022-07-29T02:32:19.360Z,5.05
2022-07-29T02:34:47.379Z,5.47
2022-07-29T02:37:15.128Z,5.38
2022-07-29T02:39:44.778Z,5.72
2022-07-29T02:42:16.091Z,6.00
2022-07-29T02:44:43.315Z,6.25
2022-07-29T02:47:30.649Z,5.60
2022-07-29T02:50:16.636Z,5.68
2022-07-29T02:52:53.516Z,5.75
2022-07-29T02:56:06.048Z,5.18
2022-07-29T02:58:39.135Z,6.03
2022-07-29T03:01:19.327Z,6.57
2022-07-29T03:03:50.389Z,5.95
2022-07-29T03:06:28.817Z,6.07
2022-07-29T03:09:10.485Z,6.03
2022-07-29T03:11:46.040Z,6.13
2022-07-29T03:14:21.359Z,5.95
2022-07-29T03:16:49.344Z,6.32
2022-07-29T03:19:16.552Z,6.50
2022-07-29T03:21:43.332Z,6.13
2022-07-29T03:24:10.729Z,6.35
2022-07-29T03:26:38.002Z,5.93
2022-07-29T03:29:04.651Z,6.78
2022-07-29T03:31:32.185Z,6.45
2022-07-29T03:34:00.604Z,6.32
2022-07-29T03:36:27.280Z,6.78
2022-07-29T03:38:54.314Z,6.47
2022-07-29T03:41:23.572Z,6.40
2022-07-29T03:43:51.996Z,6.28
2022-07-29T03:46:21.859Z,6.32
2022-07-29T03:48:54.007Z,6.22
2022-07-29T03:51:33.643Z,6.05
2022-07-29T03:54:06.370Z,6.32
2022-07-29T03:56:40.829Z,5.63
2022-07-29T03:59:08.422Z,5.40
2022-07-29T04:01:36.348Z,6.30
2022-07-29T04:04:03.761Z,5.43
2022-07-29T04:06:30.453Z,6.00
2022-07-29T04:08:57.074Z,6.03
2022-07-29T04:11:23.933Z,6.18
2022-07-29T04:13:50.576Z,6.05
2022-07-29T04:16:17.263Z,5.75
2022-07-29T04:18:43.876Z,6.97
2022-07-29T04:21:10.517Z,6.03
2022-07-29T04:23:47.500Z,6.22
2022-07-29T04:26:21.336Z,6.70
2022-07-29T04:28:47.978Z,6.70
2022-07-29T04:31:14.871Z,6.07
2022-07-29T04:33:41.500Z,6.10
2022-07-29T04:36:28.600Z,5.82
2022-07-29T04:38:54.843Z,6.55
2022-07-29T04:41:21.477Z,6.75
2022-07-29T04:43:48.596Z,6.40
2022-07-29T04:46:15.319Z,5.88
2022-07-29T04:48:42.141Z,6.00
2022-07-29T04:51:08.977Z,6.10
2022-07-29T04:53:35.552Z,6.57
2022-07-29T04:56:02.856Z,5.88
2022-07-29T04:58:29.549Z,6.10
2022-07-29T05:00:56.235Z,6.43
2022-07-29T05:03:22.837Z,6.50
2022-07-29T05:05:49.407Z,7.00
2022-07-29T05:08:16.071Z,6.82
2022-07-29T05:10:42.720Z,6.07
2022-07-29T05:13:09.460Z,6.45
2022-07-29T05:15:36.885Z,6.30
2022-07-29T05:18:04.025Z,5.93
2022-07-29T05:20:31.700Z,6.00
2022-07-29T05:23:00.131Z,5.82
2022-07-29T05:25:40.807Z,5.28
2022-07-29T05:28:10.708Z,5.68
2022-07-29T05:30:37.379Z,5.82
2022-07-29T05:33:04.103Z,5.30
2022-07-29T05:35:30.751Z,4.75
2022-07-29T05:37:57.355Z,4.80
2022-07-29T05:40:24.006Z,4.90
2022-07-29T05:42:50.590Z,5.35
2022-07-29T05:45:17.197Z,5.50
2022-07-29T05:47:43.833Z,5.13
2022-07-29T05:50:10.649Z,4.95
2022-07-29T05:52:37.312Z,4.60
2022-07-29T05:55:06.441Z,5.35
2022-07-29T05:57:33.551Z,4.78
2022-07-29T06:00:00.247Z,4.60
2022-07-29T06:02:26.898Z,4.40
2022-07-29T06:04:53.967Z,4.80
2022-07-29T06:07:20.918Z,5.28
2022-07-29T06:09:47.592Z,4.28
2022-07-29T06:12:14.223Z,4.80
2022-07-29T06:14:41.177Z,4.88
2022-07-29T06:17:07.995Z,4.93
2022-07-29T06:19:37.525Z,5.20
2022-07-29T06:22:04.591Z,4.93
2022-07-29T06:24:31.732Z,4.72
2022-07-29T06:26:58.468Z,4.07
2022-07-29T06:29:25.414Z,4.93
2022-07-29T06:31:52.072Z,4.88
2022-07-29T06:34:19.254Z,4.40
2022-07-29T06:36:47.491Z,3.92
2022-07-29T06:39:14.945Z,4.05
2022-07-29T06:41:42.945Z,4.72
2022-07-29T06:44:12.247Z,3.88
2022-07-29T06:46:39.019Z,3.97
2022-07-29T06:49:05.942Z,3.78
2022-07-29T06:51:32.911Z,3.75
2022-07-29T06:54:02.755Z,4.43
2022-07-29T06:56:38.696Z,4.10
2022-07-29T06:59:07.521Z,3.67
2022-07-29T07:01:34.177Z,3.42
2022-07-29T07:04:00.893Z,3.80
2022-07-29T07:06:27.904Z,3.47
2022-07-29T07:08:54.765Z,3.45
2022-07-29T07:11:21.685Z,3.80
2022-07-29T07:13:48.295Z,3.67
2022-07-29T07:16:15.245Z,3.70
2022-07-29T07:18:41.885Z,3.38
2022-07-29T07:21:08.592Z,3.90
2022-07-29T07:23:35.425Z,4.07
2022-07-29T07:26:02.167Z,3.83
2022-07-29T07:28:28.850Z,3.60
2022-07-29T07:30:55.580Z,3.10
2022-07-29T07:33:22.217Z,3.95
2022-07-29T07:35:48.862Z,3.40
2022-07-29T07:38:15.444Z,3.53
2022-07-29T07:40:42.366Z,3.90
2022-07-29T07:43:09.020Z,3.20
2022-07-29T07:45:38.148Z,3.05
2022-07-29T07:48:05.833Z,3.60
2022-07-29T07:50:32.646Z,3.63
2022-07-29T07:52:59.368Z,3.47
2022-07-29T07:55:26.956Z,3.30
2022-07-29T07:57:54.569Z,3.03
2022-07-29T08:00:23.214Z,3.15
2022-07-29T08:02:51.213Z,3.58
2022-07-29T08:05:18.326Z,3.63
2022-07-29T08:07:46.617Z,3.42
2022-07-29T08:10:14.769Z,3.22
2022-07-29T08:12:42.576Z,3.60
2022-07-29T08:15:09.869Z,3.42
2022-07-29T08:17:36.562Z,4.05
2022-07-29T08:20:04.072Z,3.60
2022-07-29T08:22:30.720Z,4.07
2022-07-29T08:24:57.376Z,3.65
2022-07-29T08:27:42.961Z,3.40
2022-07-29T08:30:11.325Z,3.60
2022-07-29T08:32:53.155Z,3.45
2022-07-29T08:35:22.701Z,3.75
2022-07-29T08:37:49.436Z,3.70
2022-07-29T08:40:16.403Z,3.88
2022-07-29T08:42:43.203Z,3.67
2022-07-29T08:45:10.730Z,3.65
2022-07-29T08:47:40.886Z,3.60
2022-07-29T08:50:11.144Z,3.38
2022-07-29T08:52:39.944Z,3.50
2022-07-29T08:55:08.788Z,3.85
2022-07-29T08:57:37.285Z,3.70
2022-07-29T09:00:11.901Z,3.90
2022-07-29T09:02:47.510Z,3.78
2022-07-29T09:05:15.376Z,3.28
2022-07-29T09:07:44.347Z,3.63
2022-07-29T09:10:11.393Z,3.30
2022-07-29T09:12:38.502Z,3.33
2022-07-29T09:15:05.876Z,3.45
2022-07-29T09:17:47.622Z,3.17
2022-07-29T09:20:26.371Z,3.45
2022-07-29T09:22:54.576Z,3.35
2022-07-29T09:25:37.975Z,3.20
2022-07-29T09:28:16.047Z,3.73
2022-07-29T09:30:52.629Z,3.60
2022-07-29T09:33:19.977Z,3.70
2022-07-29T09:35:56.580Z,3.50
2022-07-29T09:38:23.913Z,3.20
2022-07-29T09:41:05.594Z,3.40
2022-07-29T09:43:33.578Z,3.05
2022-07-29T09:46:13.695Z,3.60
2022-07-29T09:48:40.637Z,3.40
2022-07-29T09:51:24.210Z,3.25
2022-07-29T09:53:55.366Z,3.63
2022-07-29T09:56:40.011Z,3.47
2022-07-29T09:59:07.944Z,3.17
2022-07-29T10:01:35.302Z,3.50
2022-07-29T10:04:01.918Z,3.13
2022-07-29T10:06:29.372Z,2.92
2022-07-29T10:09:12.019Z,3.10
2022-07-29T10:11:49.081Z,2.63
2022-07-29T10:14:17.202Z,3.42
2022-07-29T10:16:44.402Z,3.80
2022-07-29T10:19:11.417Z,3.40
2022-07-29T10:21:40.793Z,3.53
2022-07-29T10:24:14.996Z,3.35
2022-07-29T10:26:42.900Z,3.80
2022-07-29T10:29:09.603Z,3.35
2022-07-29T10:32:01.009Z,3.55
2022-07-29T10:34:54.153Z,3.42
2022-07-29T10:37:55.045Z,3.65
2022-07-29T10:41:19.378Z,3.92
2022-07-29T10:43:51.099Z,4.40
2022-07-29T10:46:19.526Z,3.58
2022-07-29T10:49:05.345Z,3.30
2022-07-29T10:51:54.447Z,3.33
2022-07-29T10:54:44.669Z,3.25
2022-07-29T10:57:53.185Z,3.50
2022-07-29T11:00:16.993Z,3.25
2022-07-29T11:02:46.311Z,3.17
2022-07-29T11:05:19.921Z,3.28
2022-07-29T11:08:19.983Z,3.47
2022-07-29T11:10:49.567Z,3.15
2022-07-29T11:13:54.242Z,3.17
2022-07-29T11:16:25.109Z,3.75
2022-07-29T11:19:14.172Z,2.90
2022-07-29T11:21:54.700Z,3.30
2022-07-29T11:24:28.797Z,3.25
2022-07-29T11:27:18.136Z,3.55
2022-07-29T11:29:55.704Z,3.88
2022-07-29T11:32:24.225Z,3.22
2022-07-29T11:35:17.258Z,3.00
2022-07-29T11:37:52.811Z,3.25
2022-07-29T11:40:23.049Z,3.30
2022-07-29T11:42:51.992Z,3.50
2022-07-29T11:48:31.363Z,3.65
2022-07-29T11:51:00.054Z,3.70
2022-07-29T11:53:28.960Z,3.13
2022-07-29T11:56:00.476Z,4.28
2022-07-29T11:58:28.465Z,2.90
2022-07-29T12:00:56.270Z,3.13
2022-07-29T12:03:33.279Z,3.60
2022-07-29T12:06:21.247Z,3.22
2022-07-29T12:07:03.951Z,3.20
2022-07-29T12:08:48.098Z,3.25
2022-07-29T12:11:23.270Z,3.20
2022-07-29T12:13:53.904Z,3.92
2022-07-29T12:16:25.462Z,3.20
2022-07-29T12:18:59.451Z,3.00
2022-07-29T12:21:26.791Z,2.95
2022-07-29T12:23:57.748Z,3.80
2022-07-29T12:26:28.763Z,3.43
2022-07-29T12:28:55.653Z,3.42
2022-07-29T12:31:43.898Z,3.30
2022-07-29T12:34:11.381Z,2.78
2022-07-29T12:36:38.434Z,3.20
2022-07-29T12:39:05.651Z,3.00
2022-07-29T12:41:32.634Z,3.00
2022-07-29T12:43:59.296Z,2.70
2022-07-29T12:46:25.962Z,2.70
2022-07-29T12:48:55.869Z,2.55
2022-07-29T12:51:37.058Z,2.70
2022-07-29T12:54:15.425Z,3.67
2022-07-29T12:56:44.997Z,3.15
2022-07-29T12:59:16.960Z,8.85
2022-07-29T13:01:44.233Z,3.53
2022-07-29T13:04:10.991Z,3.72
2022-07-29T13:06:50.984Z,3.17
2022-07-29T13:09:23.487Z,3.30
2022-07-29T13:11:51.707Z,3.10
2022-07-29T13:14:38.533Z,2.95
2022-07-29T13:17:11.155Z,3.13
2022-07-29T13:19:45.410Z,3.05
2022-07-29T13:22:14.221Z,3.00
2022-07-29T13:25:10.275Z,4.15
2022-07-29T13:27:38.886Z,2.88
2022-07-29T13:30:08.440Z,3.10
2022-07-29T13:32:35.964Z,3.00
2022-07-29T13:35:05.780Z,2.92
2022-07-29T13:37:35.199Z,2.75
2022-07-29T13:40:04.186Z,2.72
2022-07-29T13:42:31.565Z,3.28
2022-07-29T13:44:58.495Z,2.60
2022-07-29T13:47:32.303Z,2.65
2022-07-29T13:50:00.784Z,2.80
2022-07-29T13:52:27.472Z,2.85
2022-07-29T13:54:54.088Z,2.85
2022-07-29T13:57:20.745Z,3.25
2022-07-29T13:59:51.884Z,3.08
2022-07-29T14:02:20.482Z,3.30
2022-07-29T14:04:47.236Z,3.03
2022-07-29T14:07:16.390Z,2.80
2022-07-29T14:09:43.628Z,3.40
2022-07-29T14:12:10.628Z,2.90
2022-07-29T14:14:37.734Z,3.42
2022-07-29T14:17:07.518Z,5.82
2022-07-29T14:19:39.328Z,9.18
2022-07-29T14:22:07.618Z,5.72
2022-07-29T14:24:37.252Z,4.80
2022-07-29T14:27:05.545Z,4.95
2022-07-29T14:29:37.537Z,4.47
2022-07-29T14:32:07.480Z,4.60
2022-07-29T14:34:35.280Z,4.15
2022-07-29T14:37:02.021Z,3.50
2022-07-29T14:39:31.761Z,3.50
2022-07-29T14:41:59.307Z,3.58
2022-07-29T14:44:32.167Z,4.05
2022-07-29T14:47:07.580Z,3.45
2022-07-29T14:49:35.120Z,3.40
2022-07-29T14:52:02.116Z,3.50
2022-07-29T14:54:28.814Z,3.70
2022-07-29T14:56:58.177Z,4.15
2022-07-29T14:59:25.569Z,3.42
2022-07-29T15:01:52.167Z,3.58
2022-07-29T15:04:18.812Z,3.38
2022-07-29T15:06:45.456Z,3.80
2022-07-29T15:09:12.144Z,3.30
2022-07-29T15:11:39.068Z,3.40
2022-07-29T15:14:06.905Z,3.28
2022-07-29T15:16:34.122Z,2.95
2022-07-29T15:19:01.870Z,4.82
2022-07-29T15:21:28.747Z,3.83
2022-07-29T15:23:55.421Z,3.42
2022-07-29T15:26:22.443Z,3.53
2022-07-29T15:28:49.403Z,3.88
2022-07-29T15:31:16.261Z,3.95
2022-07-29T15:33:42.962Z,3.60
2022-07-29T15:36:09.763Z,3.45
2022-07-29T15:38:41.720Z,3.88
2022-07-29T15:41:08.805Z,3.30
2022-07-29T15:43:38.388Z,3.15
2022-07-29T15:46:23.651Z,2.92
2022-07-29T15:48:50.395Z,3.10
2022-07-29T15:51:17.040Z,3.20
2022-07-29T15:53:43.680Z,3.20
2022-07-29T15:56:20.079Z,3.60
2022-07-29T15:58:46.672Z,3.95
2022-07-29T16:01:13.295Z,3.58
2022-07-29T16:03:44.308Z,3.58
2022-07-29T16:06:13.010Z,3.85
2022-07-29T16:08:39.748Z,3.88
2022-07-29T16:11:06.371Z,3.70
2022-07-29T16:13:32.963Z,3.97
2022-07-29T16:16:02.352Z,4.20
2022-07-29T16:18:30.517Z,4.10
2022-07-29T16:20:57.568Z,4.00
2022-07-29T16:23:24.787Z,4.43
2022-07-29T16:25:59.660Z,4.10
2022-07-29T16:28:27.550Z,4.38
2022-07-29T16:30:54.203Z,4.50
2022-07-29T16:33:20.908Z,4.32
2022-07-29T16:35:47.465Z,4.55
2022-07-29T16:38:14.077Z,3.97
2022-07-29T16:40:40.684Z,3.90
2022-07-29T16:43:07.620Z,4.20
2022-07-29T16:45:43.864Z,4.40
2022-07-29T16:48:12.553Z,3.67
2022-07-29T16:50:39.690Z,4.00
2022-07-29T16:53:06.772Z,3.97
2022-07-29T16:55:33.692Z,3.75
2022-07-29T16:58:00.584Z,3.50
2022-07-29T17:00:27.335Z,4.10
2022-07-29T17:02:53.907Z,3.40
2022-07-29T17:05:20.554Z,3.83
2022-07-29T17:07:47.611Z,3.40
2022-07-29T17:10:14.351Z,3.78
2022-07-29T17:12:41.599Z,3.50
2022-07-29T17:15:11.162Z,3.28
2022-07-29T17:17:55.461Z,3.80
2022-07-29T17:20:23.973Z,3.17
2022-07-29T17:22:50.693Z,3.47
2022-07-29T17:25:21.110Z,2.88
2022-07-29T17:27:50.614Z,3.45
2022-07-29T17:30:18.149Z,2.50
2022-07-29T17:32:44.797Z,2.60
2022-07-29T17:35:29.718Z,2.85
2022-07-29T17:37:56.437Z,2.65
2022-07-29T17:40:23.669Z,2.90
2022-07-29T17:42:50.613Z,2.90
2022-07-29T17:45:17.522Z,3.20
2022-07-29T17:47:45.135Z,2.90
2022-07-29T17:50:11.916Z,3.40
2022-07-29T17:52:39.243Z,3.38
2022-07-29T17:55:07.107Z,3.70
2022-07-29T17:57:34.144Z,3.40
2022-07-29T18:00:00.775Z,3.60
2022-07-29T18:02:28.381Z,3.25
2022-07-29T18:04:55.213Z,3.60
2022-07-29T18:07:21.801Z,3.30
2022-07-29T18:09:48.490Z,4.50
2022-07-29T18:12:15.226Z,4.65
2022-07-29T18:14:41.860Z,4.07
2022-07-29T18:17:08.763Z,7.03
2022-07-29T18:19:35.391Z,4.35
2022-07-29T18:22:05.082Z,4.00
2022-07-29T18:24:32.372Z,3.53
2022-07-29T18:26:59.291Z,3.13
2022-07-29T18:29:29.024Z,3.15
2022-07-29T18:31:56.102Z,3.38
2022-07-29T18:34:22.755Z,4.38
2022-07-29T18:36:49.419Z,3.90
2022-07-29T18:39:20.437Z,4.00
2022-07-29T18:41:50.147Z,3.55
2022-07-29T18:44:17.715Z,3.63
2022-07-29T18:46:44.828Z,2.80
2022-07-29T18:49:14.415Z,3.00
2022-07-29T18:51:41.128Z,3.10
2022-07-29T18:54:09.225Z,2.78
2022-07-29T18:56:36.082Z,3.05
2022-07-29T18:59:03.121Z,3.03
2022-07-29T19:01:31.763Z,3.20
2022-07-29T19:03:59.232Z,3.30
2022-07-29T19:06:28.642Z,3.45
2022-07-29T19:08:56.477Z,3.72
2022-07-29T19:11:23.291Z,3.33
2022-07-29T19:13:49.968Z,4.18
2022-07-29T19:16:16.841Z,3.90
2022-07-29T19:18:44.654Z,4.18
2022-07-29T19:21:11.339Z,4.00
2022-07-29T19:23:59.435Z,3.38
2022-07-29T19:26:26.422Z,4.82
2022-07-29T19:28:53.340Z,5.10
2022-07-29T19:31:20.066Z,5.63
2022-07-29T19:33:46.754Z,5.55
2022-07-29T19:36:13.344Z,6.43
2022-07-29T19:38:40.514Z,5.70
2022-07-29T19:41:07.193Z,5.90
2022-07-29T19:43:52.093Z,5.80
2022-07-29T19:46:20.979Z,5.75
2022-07-29T19:48:47.934Z,5.57
2022-07-29T19:51:14.701Z,5.88
2022-07-29T19:53:41.377Z,6.03
2022-07-29T19:56:08.759Z,5.97
2022-07-29T19:58:36.161Z,5.65
2022-07-29T20:01:02.882Z,6.25
2022-07-29T20:03:39.879Z,5.57
2022-07-29T20:06:07.513Z,8.80
2022-07-29T20:08:34.189Z,6.40
2022-07-29T20:11:00.876Z,6.75
2022-07-29T20:13:27.581Z,6.72
2022-07-29T20:15:54.307Z,6.78
2022-07-29T20:18:21.079Z,6.30
2022-07-29T20:20:49.579Z,5.90
2022-07-29T20:23:16.602Z,6.07
2022-07-29T20:25:43.282Z,6.47
2022-07-29T20:28:09.887Z,5.70
2022-07-29T20:30:38.417Z,6.15
2022-07-29T20:33:05.558Z,6.38
2022-07-29T20:35:32.253Z,6.57
2022-07-29T20:37:59.807Z,5.97
2022-07-29T20:40:27.632Z,6.13
2022-07-29T20:42:55.605Z,6.80
2022-07-29T20:45:23.769Z,6.55
2022-07-29T20:47:51.860Z,6.38
2022-07-29T20:50:20.591Z,6.40
2022-07-29T20:52:51.662Z,10.18
2022-07-29T20:55:18.279Z,6.38
2022-07-29T20:57:44.852Z,7.50
2022-07-29T21:00:11.995Z,6.60
2022-07-29T21:02:38.941Z,5.78
2022-07-29T21:05:06.236Z,6.80
2022-07-29T21:07:32.927Z,6.65
2022-07-29T21:09:59.621Z,6.50
2022-07-29T21:12:26.340Z,7.57
2022-07-29T21:14:52.895Z,7.57
2022-07-29T21:17:22.604Z,6.35
2022-07-29T21:19:52.820Z,7.07
2022-07-29T21:22:21.885Z,6.50
2022-07-29T21:24:49.320Z,7.22
2022-07-29T21:27:34.978Z,8.05
2022-07-29T21:30:06.515Z,7.57
2022-07-29T21:32:33.238Z,7.63
2022-07-29T21:35:00.052Z,7.05
2022-07-29T21:37:27.073Z,7.85
2022-07-29T21:39:53.708Z,7.32
2022-07-29T21:42:20.388Z,7.40
2022-07-29T21:44:47.073Z,7.32
2022-07-29T21:47:13.773Z,7.65
2022-07-29T21:49:40.383Z,7.30
2022-07-29T21:52:07.897Z,8.02
2022-07-29T21:54:34.875Z,7.60
2022-07-29T21:57:02.038Z,8.32
2022-07-29T21:59:29.220Z,8.05
2022-07-29T22:01:56.603Z,7.95
2022-07-29T22:04:23.367Z,8.00
2022-07-29T22:06:50.031Z,7.93
2022-07-29T22:09:16.690Z,7.90
2022-07-29T22:11:43.681Z,7.90
2022-07-29T22:14:10.344Z,7.45
2022-07-29T22:16:37.226Z,7.60
2022-07-29T22:19:04.129Z,7.25
2022-07-29T22:21:30.978Z,8.18
2022-07-29T22:23:58.144Z,7.85
2022-07-29T22:26:24.832Z,7.75
2022-07-29T22:28:51.487Z,7.68
2022-07-29T22:31:18.517Z,7.53
2022-07-29T22:33:45.189Z,7.32
2022-07-29T22:36:11.923Z,7.70
2022-07-29T22:38:38.592Z,8.32
2022-07-29T22:41:05.231Z,8.05
2022-07-29T22:43:32.031Z,7.68
2022-07-29T22:45:58.787Z,7.50
2022-07-29T22:48:25.439Z,6.65
2022-07-29T22:50:52.053Z,7.85
2022-07-29T22:53:18.730Z,7.50
2022-07-29T22:55:45.509Z,6.97
2022-07-29T22:58:12.534Z,7.30
2022-07-29T23:00:39.268Z,7.63
2022-07-29T23:03:05.934Z,8.77
2022-07-29T23:05:32.820Z,6.82
2022-07-29T23:08:00.025Z,7.03
2022-07-29T23:10:26.924Z,7.22
2022-07-29T23:12:53.557Z,6.85
2022-07-29T23:15:20.189Z,7.35
2022-07-29T23:17:46.834Z,7.15
2022-07-29T23:20:14.843Z,6.85
2022-07-29T23:22:41.831Z,6.82
2022-07-29T23:25:08.741Z,7.00
2022-07-29T23:27:35.403Z,6.95
2022-07-29T23:30:02.758Z,6.50
2022-07-29T23:32:29.435Z,6.30
2022-07-29T23:34:56.080Z,6.28
2022-07-29T23:37:23.290Z,7.13
2022-07-29T23:39:49.883Z,6.70
2022-07-29T23:42:16.518Z,6.50
2022-07-29T23:44:43.161Z,6.68
2022-07-29T23:47:09.962Z,6.68
2022-07-29T23:49:36.613Z,6.40
2022-07-29T23:52:03.385Z,5.82
2022-07-29T23:54:29.999Z,6.30
2022-07-29T23:56:58.014Z,6.30
2022-07-29T23:59:25.231Z,6.15
